• Join FlightAware (Why Join?)
  • Login
  • US Flag 
10:29PM EDT


 

Airport Tracker/Info


-or-


 

Live Flight TrackerFlight Track Log ✈ UAL310 ✈ 10-May-2013 ✈ KDEN - KLGA

Flight Track Log - Related Links

Times and Time Zones

All times are in EDT time to prevent confusion due to time zone crossing. See the UAL310 flight status page for this flight to view local times or setup timezone preferences in your user account.

Time Position Orientation Groundspeed Altitude Reporting Facility
EDT Latitude Longitude Course Direction KTS MPH feet Rate Location/Type
12:31PM 39.9500 -104.6833 18° North 233 268 8,200  Level Denver TRACON
12:32PM 40.0167 -104.6667 11° North 254 292 10,600 2,160 Climbing Denver TRACON
12:33PM 40.0947 -104.6372 16° North 286 329 12,500 1,920 Climbing Denver Center
12:34PM 40.1797 -104.6017 18° North 315 362 14,500 1,980 Climbing Denver Center
12:35PM 40.5751 -104.4024 12° North  Level FlightAware Approximate
12:35PM 40.2836 -104.5569 18° North 364 419 16,600  Level Denver Center
12:36PM 40.6949 -104.3522 18° North  Level FlightAware Approximate
12:36PM 40.3869 -104.5203 15° North 382 440 18,400  Level Denver Center
12:37PM 40.4969 -104.4711 19° North 385 443 20,500 1,920 Climbing Denver Center
12:38PM 40.6089 -104.4325 15° North 414 476 22,400 1,740 Climbing Denver Center
12:39PM 40.7175 -104.3808 20° North 418 481 24,200 1,680 Climbing Denver Center
12:40PM 40.8286 -104.3431 14° North 417 480 25,900 1,500 Climbing Denver Center
12:41PM 40.9572 -104.2917 17° North 429 494 27,400 1,380 Climbing Denver Center
12:42PM 41.0703 -104.2439 18° North 440 506 28,800 1,620 Climbing Denver Center
12:43PM 41.1997 -104.1922 17° North 438 504 30,800 1,560 Climbing Denver Center
12:44PM 41.3094 -104.1489 17° North 431 496 32,100 1,200 Climbing Denver Center
12:45PM 41.4389 -104.0944 17° North 436 502 33,300 1,200 Climbing Denver Center
12:46PM 41.5489 -104.0483 17° North 435 501 34,600 780 Climbing Denver Center
12:47PM 41.6758 -103.9978 17° North 427 491 35,000 480 Climbing Denver Center
12:48PM 41.7867 -103.9517 17° North 435 501 35,600 720 Climbing Denver Center
12:49PM 41.9119 -103.9000 17° North 425 489 36,600 660 Climbing Denver Center
12:50PM 42.0186 -103.8558 17° North 420 483 37,000 180 Climbing Denver Center
12:51PM 42.1281 -103.8106 17° North 427 491 37,000  Level Denver Center
12:52PM 42.2561 -103.7556 18° North 432 497 37,000  Level Denver Center
12:53PM 42.3642 -103.7106 17° North 429 494 37,000  Level Denver Center
12:54PM 42.4883 -103.6589 17° North 422 486 37,000  Level Denver Center
12:55PM 42.5942 -103.6133 18° North 419 482 37,000  Level Denver Center
12:56PM 42.7161 -103.5603 18° North 414 476 37,000  Level Denver Center
12:58PM 42.8211 -103.5147 18° North 415 478 37,000  Level Denver Center
12:59PM 42.9431 -103.4628 17° North 413 475 37,000  Level Denver Center
01:00PM 43.0481 -103.4164 18° North 414 476 37,000  Level Denver Center
01:01PM 43.1725 -103.3631 17° North 418 481 37,000  Level Denver Center
01:02PM 43.2783 -103.3189 17° North 417 480 37,000  Level Denver Center
01:03PM 43.4019 -103.2639 18° North 418 481 37,000  Level Denver Center
01:04PM 43.5069 -103.2178 18° North 416 479 37,000  Level Denver Center
01:05PM 43.6306 -103.1639 18° North 417 480 37,000  Level Denver Center
01:06PM 43.7364 -103.1181 17° North 417 480 37,000  Level Denver Center
01:07PM 43.8625 -103.0631 17° North 423 487 37,000  Level Denver Center
01:08PM 43.9656 -103.0033 23° Northeast 425 489 37,000  Level Denver Center
01:09PM 44.0097 -102.8286 71° East 430 495 37,000  Level Denver Center
01:10PM 44.0242 -102.6592 83° East 446 513 37,000  Level Denver Center
01:11PM 44.0469 -102.4897 79° East 448 516 37,000  Level Denver Center
01:12PM 44.0717 -102.3214 78° East 446 513 37,000  Level Denver Center
01:13PM 44.0967 -102.1539 78° East 444 511 37,000  Level Denver Center
01:14PM 44.1244 -101.9494 79° East 447 514 37,000  Level Denver Center
01:15PM 44.1458 -101.7803 80° East 445 512 37,000  Level Denver Center
01:16PM 44.1683 -101.6106 79° East 447 514 37,000  Level Denver Center
01:17PM 44.1903 -101.4403 80° East 448 516 37,000  Level Denver Center
01:18PM 44.2156 -101.2758 78° East 445 512 37,000  Level Minneapolis Center
01:19PM 44.2344 -101.1008 81° East 447 514 37,000  Level Denver Center
01:20PM 44.2589 -100.9339 78° East 447 514 37,000  Level Minneapolis Center
01:21PM 44.2811 -100.7636 80° East 448 516 37,000  Level Minneapolis Center
01:22PM 44.3061 -100.5586 80° East 449 517 37,000  Level Minneapolis Center
01:24PM 44.3319 -100.3531 80° East 450 518 37,000  Level Minneapolis Center
01:25PM 44.3528 -100.1808 80° East 451 519 37,000  Level Minneapolis Center
01:26PM 44.3772 -99.9731 81° East 454 522 37,000  Level Minneapolis Center
01:27PM 44.3969 -99.8000 81° East 454 522 37,000  Level Minneapolis Center
01:28PM 44.4222 -99.5919 80° East 456 525 37,000  Level Minneapolis Center
01:29PM 44.4419 -99.4178 81° East 456 525 37,000  Level Minneapolis Center
01:30PM 44.4625 -99.2436 81° East 457 526 37,000  Level Minneapolis Center
01:31PM 44.4808 -99.0678 82° East 458 527 37,000  Level Minneapolis Center
01:32PM 44.5003 -98.8933 81° East 457 526 37,000  Level Minneapolis Center
01:34PM 44.5417 -98.5061 81° East 458 527 37,000  Level Minneapolis Center
01:35PM 44.5581 -98.3406 82° East 459 528 37,000  Level Minneapolis Center
01:36PM 44.5769 -98.1636 81° East 460 529 37,000  Level Minneapolis Center
01:37PM 44.5975 -97.9489 82° East 462 532 37,000  Level Minneapolis Center
01:38PM 44.6092 -97.7683 85° East 465 535 37,000  Level Minneapolis Center
01:39PM 44.6169 -97.5872 86° East 467 537 37,000  Level Minneapolis Center
01:40PM 44.6247 -97.4064 86° East 465 535 37,000  Level Minneapolis Center
01:42PM 44.6350 -97.2239 85° East 467 537 37,000  Level Minneapolis Center
01:43PM 44.6447 -97.0061 86° East 467 537 37,000  Level Minneapolis Center
01:44PM 44.6536 -96.7872 87° East 467 537 37,000  Level Minneapolis Center
01:45PM 44.6628 -96.6042 86° East 467 537 37,000  Level Minneapolis Center
01:46PM 44.6703 -96.4206 87° East 468 539 37,000  Level Minneapolis Center
01:48PM 44.6853 -96.0544 87° East 467 537 37,000  Level Minneapolis Center
01:49PM 44.6914 -95.8719 87° East 466 536 37,000  Level Minneapolis Center
01:50PM 44.6986 -95.6886 87° East 467 537 37,000  Level Minneapolis Center
01:51PM 44.7064 -95.4700 87° East 467 537 37,000  Level Minneapolis Center
01:52PM 44.7125 -95.2861 87° East 469 540 37,000  Level Minneapolis Center
01:53PM 44.7183 -95.1044 87° East 467 537 37,000  Level Minneapolis Center
01:54PM 44.7242 -94.9206 87° East 469 540 37,000  Level Minneapolis Center
01:55PM 44.7281 -94.7369 88° East 470 541 37,000  Level Minneapolis Center
01:56PM 44.7314 -94.5333 89° East 473 544 37,000  Level Minneapolis Center
01:57PM 44.7367 -94.3508 88° East 472 543 37,000  Level Minneapolis Center
01:58PM 44.7397 -94.1664 89° East 472 543 37,000  Level Minneapolis Center
01:59PM 44.7450 -93.9817 88° East 476 548 37,000 -480 Level Minneapolis Center
02:00PM 44.7489 -93.7586 89° East 477 549 36,100 -960 Descending Minneapolis Center
02:01PM 44.7525 -93.5736 88° East 476 548 35,000 -540 Descending Minneapolis Center
02:02PM 44.7556 -93.3822 89° East 488 562 35,000  Level Minneapolis Center
02:03PM 44.7547 -93.1622 90° East 493 567 35,000  Level Minneapolis Center
02:04PM 44.7511 -92.9797 92° East 493 567 35,000  Level Minneapolis Center
02:05PM 44.7450 -92.7897 93° East 489 563 35,000  Level Minneapolis Center
02:06PM 44.7378 -92.6011 93° East 486 559 35,000  Level Minneapolis Center
02:07PM 44.7297 -92.3753 93° East 483 556 35,000  Level Minneapolis Center
02:08PM 44.7236 -92.1883 93° East 483 556 35,000  Level Minneapolis Center
02:10PM 44.7172 -92.0011 93° East 482 555 35,000  Level Minneapolis Center
02:11PM 44.7114 -91.8133 92° East 482 555 35,000  Level Minneapolis Center
02:12PM 44.7031 -91.6267 94° East 481 554 35,000  Level Minneapolis Center
02:13PM 44.6961 -91.4394 93° East 481 554 35,000  Level Minneapolis Center
02:14PM 44.6853 -91.2125 94° East 486 559 35,000  Level Minneapolis Center
02:15PM 44.6786 -91.0628 94° East 484 557 35,000  Level Minneapolis Center
02:16PM 44.6675 -90.8353 94° East 488 562 35,000  Level Minneapolis Center
02:17PM 44.6572 -90.6444 94° East 491 565 35,000  Level Minneapolis Center
02:18PM 44.6472 -90.4361 94° East 490 564 35,000  Level Minneapolis Center
02:19PM 44.6372 -90.2442 94° East 492 566 35,000  Level Minneapolis Center
02:20PM 44.6269 -90.0519 94° East 493 567 35,000  Level Minneapolis Center
02:21PM 44.6161 -89.8611 94° East 491 565 35,000  Level Minneapolis Center
02:22PM 44.6028 -89.6375 95° East 491 565 35,000  Level Minneapolis Center
02:23PM 44.5914 -89.4467 95° East 491 565 35,000  Level Minneapolis Center
02:24PM 44.5794 -89.2531 95° East 495 570 35,000  Level Minneapolis Center
02:25PM 44.5675 -89.0603 95° East 495 570 35,000  Level Minneapolis Center
02:26PM 44.5556 -88.8667 95° East 496 571 35,000  Level Minneapolis Center
02:27PM 44.5428 -88.6742 95° East 496 571 35,000  Level Minneapolis Center
02:28PM 44.5278 -88.4503 95° East 494 568 35,000  Level Minneapolis Center
02:29PM 44.5136 -88.2575 96° East 494 568 35,000  Level Minneapolis Center
02:30PM 44.5000 -88.0650 96° East 494 568 35,000  Level Minneapolis Center
02:31PM 44.4867 -87.8900 96° East 496 571 35,000  Level Minneapolis Center
02:32PM 44.4683 -87.6586 96° East 499 574 35,000  Level Minneapolis Center
02:33PM 44.4536 -87.4678 96° East 497 572 35,000  Level Minneapolis Center
02:34PM 44.4369 -87.2586 96° East 501 577 35,000  Level Minneapolis Center
02:35PM 44.4225 -87.0836 97° East 499 574 35,000  Level Minneapolis Center
02:36PM 44.4072 -86.8925 96° East 497 572 35,000  Level Minneapolis Center
02:37PM 44.3878 -86.6631 97° East 499 574 35,000  Level Minneapolis Center
02:38PM 44.3717 -86.4742 97° East 496 571 35,000  Level Minneapolis Center
02:39PM 44.3553 -86.2850 97° East 496 571 35,000  Level Minneapolis Center
02:41PM 44.3378 -86.0972 97° East 495 570 35,000  Level Minneapolis Center
02:42PM 44.3214 -85.9100 97° East 492 566 35,000  Level Minneapolis Center
02:43PM 44.3008 -85.6867 97° East 490 564 35,000  Level Minneapolis Center
02:44PM 44.2831 -85.4997 98° East 490 564 35,000  Level Minneapolis Center
02:45PM 44.2683 -85.3494 98° East 490 564 35,000  Level Minneapolis Center
02:46PM 44.2469 -85.1242 97° East 491 565 35,000  Level Minneapolis Center
02:47PM 44.2286 -84.9369 98° East 491 565 35,000  Level Minneapolis Center
02:48PM 44.2064 -84.7117 98° East 491 565 35,000  Level Minneapolis Center
02:49PM 44.1867 -84.5247 98° East 490 564 35,000  Level Minneapolis Center
02:50PM 44.1703 -84.3350 97° East 495 570 35,000  Level Minneapolis Center
02:51PM 44.1797 -84.1414 86° East 499 574 35,000  Level Minneapolis Center
02:52PM 44.1900 -83.9478 86° East 503 579 35,000  Level Minneapolis Center
02:53PM 44.2006 -83.7150 86° East 504 580 35,000  Level Minneapolis Center
02:54PM 44.2083 -83.5217 87° East 504 580 35,000  Level Minneapolis Center
02:55PM 44.2172 -83.3264 86° East 504 580 35,000  Level Minneapolis Center
02:56PM 44.2250 -83.0925 87° East 505 581 35,000  Level Minneapolis Center
02:57PM 44.2167 -82.9333 94° East 510 587 35,000 60 Level Toronto Center
02:58PM 44.2167 -82.7500 90° East 510 587 35,100 600 Climbing Toronto Center
02:59PM 44.2333 -82.5667 83° East 510 587 36,200 900 Climbing Toronto Center
03:00PM 44.2475 -82.4228 82° East 512 589 36,700 660 Climbing Minneapolis Center
03:00PM 44.2333 -82.3500 105° East 520 598 36,900 180 Climbing Toronto Center
03:01PM 44.2333 -82.1500 90° East 520 598 37,000  Climbing Toronto Center
03:02PM 44.2333 -81.9333 90° East 530 610 37,000  Level Toronto Center
03:03PM 44.2500 -81.7333 83° East 530 610 37,000  Level Toronto Center
03:04PM 44.2667 -81.5500 83° East 540 621 37,000  Level Toronto Center
03:05PM 44.2667 -81.3167 90° East 540 621 37,000  Level Toronto Center
03:06PM 44.2667 -81.1000 90° East 550 633 37,000  Level Toronto Center
03:07PM 44.2667 -80.8833 90° East 540 621 37,000  Level Toronto Center
03:08PM 44.2833 -80.6833 83° East 540 621 37,000  Level Toronto Center
03:09PM 44.3000 -80.5000 83° East 530 610 37,000  Level Toronto Center
03:10PM 44.3000 -80.2667 90° East 530 610 37,000  Level Toronto Center
03:11PM 44.3000 -80.0833 90° East 530 610 37,000  Level Toronto Center
03:12PM 44.3000 -79.8667 90° East 520 598 37,000  Level Toronto Center
03:13PM 44.3000 -79.6500 90° East 520 598 37,000  Level Toronto Center
03:15PM 44.3077 -79.3632 85° East  Level FlightAware Approximate
03:15PM 44.3167 -79.2667 85° East 520 598 37,000  Level Toronto Center
03:16PM 44.2833 -79.0667 103° East 520 598 37,000  Level Toronto Center
03:17PM 44.2333 -78.8667 109° East 510 587 37,000  Level Toronto Center
03:18PM 44.2000 -78.6833 104° East 510 587 37,000  Level Toronto Center
03:19PM 44.1667 -78.5000 104° East 510 587 37,000  Level Toronto Center
03:20PM 44.1000 -78.3167 117° Southeast 510 587 37,000  Level Toronto Center
03:21PM 44.0667 -78.1167 103° East 510 587 37,000  Level Toronto Center
03:22PM 44.0167 -77.9167 109° East 510 587 37,000  Level Toronto Center
03:23PM 43.9833 -77.7333 104° East 510 587 37,000  Level Toronto Center
03:24PM 43.9333 -77.5500 111° Southeast 510 587 37,000 -120 Level Toronto Center
03:25PM 43.8833 -77.3667 111° Southeast 510 587 36,800 -600 Descending Toronto Center
03:26PM 43.8333 -77.1833 111° Southeast 510 587 35,800 -1,080 Descending Toronto Center
03:27PM 43.8000 -77.0000 104° East 500 575 34,700 -1,020 Descending Toronto Center
03:29PM 43.7131 -76.7092 112° Southeast 480 552 33,000 -600 Descending Boston Center
03:30PM 43.6178 -76.5792 135° Southeast 490 564 33,000  Level Boston Center
03:31PM 43.5156 -76.4603 140° Southeast 477 549 33,000  Level Boston Center
03:32PM 43.4153 -76.3422 139° Southeast 477 549 33,000  Level Boston Center
03:33PM 43.3131 -76.2242 140° Southeast 482 555 33,000  Level Boston Center
03:34PM 43.2108 -76.1011 139° Southeast 487 560 33,000  Level Boston Center
03:35PM 43.0942 -75.9661 140° Southeast 492 566 33,000 -60 Level Boston Center
03:36PM 42.9914 -75.8494 140° Southeast 492 566 32,900 -180 Descending Boston Center
03:37PM 42.8867 -75.7247 139° Southeast 492 566 32,700 -480 Descending Boston Center
03:38PM 42.7836 -75.6058 140° Southeast 492 566 32,000 -780 Descending Boston Center
03:39PM 42.6806 -75.4875 140° Southeast 487 560 31,200 -840 Descending Boston Center
03:40PM 42.5753 -75.3669 140° Southeast 487 560 30,400 -780 Descending Boston Center
03:41PM 42.4761 -75.2467 138° Southeast 487 560 29,600 -1,500 Descending Boston Center
03:42PM 42.3972 -75.0575 119° Southeast 472 543 27,100 -2,400 Descending Boston Center
03:43PM 42.3383 -74.8950 116° Southeast 472 543 24,900 -1,800 Descending Boston Center
03:44PM 42.2833 -74.7442 116° Southeast 472 543 23,200 -1,800 Descending Boston Center
03:45PM 42.2158 -74.5594 116° Southeast 455 524 21,000 -1,920 Descending Boston Center
03:46PM 42.1600 -74.4203 118° Southeast 443 510 19,400 -1,020 Descending Boston Center
03:47PM 42.1144 -74.2900 115° Southeast 436 502 19,000 -240 Descending Boston Center
03:48PM 42.0417 -74.1425 124° Southeast 436 502 19,000  Level Boston Center
03:49PM 41.9767 -74.0150 124° Southeast 423 487 19,000 -480 Level Boston Center
03:50PM 41.9181 -73.8936 123° Southeast 423 487 18,100 -1,500 Descending Boston Center
03:51PM 41.8189 -73.8078 147° Southeast 395 455 16,100 -1,860 Descending Boston Center
03:52PM 41.7169 -73.8000 177° South 360 414 14,400 -2,100 Descending Boston Center
03:53PM 41.6169 -73.8036 182° South 360 414 11,900 -2,040 Descending Boston Center
03:54PM 41.5000 -73.8000 179° South 345 397 10,200 -1,140 Descending New York TRACON
03:55PM 41.4167 -73.8000 180° South 295 339 9,600 -960 Descending New York TRACON
03:56PM 41.3333 -73.7833 171° South 290 334 8,200 -780 Descending New York TRACON
03:57PM 41.2667 -73.7333 151° Southeast 290 334 8,000 -180 Descending New York TRACON
03:58PM 41.2000 -73.6667 143° Southeast 293 337 7,900 -780 Descending New York TRACON
03:59PM 41.1333 -73.6167 151° Southeast 289 333 6,500 -1,500 Descending New York TRACON
04:00PM 41.0667 -73.6333 191° South 273 314 4,900 -1,260 Descending New York TRACON
04:01PM 41.0000 -73.6833 210° Southwest 255 293 4,000 -840 Descending New York TRACON
04:02PM 40.9500 -73.7333 217° Southwest 239 275 3,300 -660 Descending New York TRACON
04:03PM 40.9000 -73.7667 207° Southwest 201 231 2,800 -840 Descending New York TRACON
04:04PM 40.8667 -73.8000 217° Southwest 169 194 1,800 -1,020 Descending New York TRACON